sensor_id;sensor_type;location;lat;lon;timestamp;P1;durP1;ratioP1;P2;durP2;ratioP2
17347;SDS011;8791;50.876;4.342;2022-12-29T00:01:23;1.30;;;1.03;;
17347;SDS011;8791;50.876;4.342;2022-12-29T00:03:50;1.63;;;1.40;;
17347;SDS011;8791;50.876;4.342;2022-12-29T00:06:18;2.43;;;1.30;;
17347;SDS011;8791;50.876;4.342;2022-12-29T00:08:45;2.30;;;1.10;;
17347;SDS011;8791;50.876;4.342;2022-12-29T00:11:13;3.80;;;1.10;;
17347;SDS011;8791;50.876;4.342;2022-12-29T00:13:41;0.80;;;0.80;;
17347;SDS011;8791;50.876;4.342;2022-12-29T00:16:26;1.93;;;1.20;;
17347;SDS011;8791;50.876;4.342;2022-12-29T00:18:53;2.97;;;1.37;;
17347;SDS011;8791;50.876;4.342;2022-12-29T00:21:22;2.03;;;1.10;;
17347;SDS011;8791;50.876;4.342;2022-12-29T00:24:09;3.60;;;1.07;;
17347;SDS011;8791;50.876;4.342;2022-12-29T00:26:56;2.03;;;0.97;;
17347;SDS011;8791;50.876;4.342;2022-12-29T00:29:47;2.40;;;0.93;;
17347;SDS011;8791;50.876;4.342;2022-12-29T00:32:31;2.00;;;0.90;;
17347;SDS011;8791;50.876;4.342;2022-12-29T00:35:20;2.27;;;0.97;;
17347;SDS011;8791;50.876;4.342;2022-12-29T00:37:52;2.03;;;0.80;;
17347;SDS011;8791;50.876;4.342;2022-12-29T00:40:39;3.50;;;1.00;;
17347;SDS011;8791;50.876;4.342;2022-12-29T00:43:24;3.70;;;1.13;;
17347;SDS011;8791;50.876;4.342;2022-12-29T00:46:08;1.50;;;1.00;;
17347;SDS011;8791;50.876;4.342;2022-12-29T00:48:35;2.93;;;0.73;;
17347;SDS011;8791;50.876;4.342;2022-12-29T00:51:19;3.53;;;1.50;;
17347;SDS011;8791;50.876;4.342;2022-12-29T00:53:47;2.60;;;0.70;;
17347;SDS011;8791;50.876;4.342;2022-12-29T00:56:14;4.50;;;0.90;;
17347;SDS011;8791;50.876;4.342;2022-12-29T00:58:41;1.57;;;0.90;;
17347;SDS011;8791;50.876;4.342;2022-12-29T01:01:08;2.47;;;0.87;;
17347;SDS011;8791;50.876;4.342;2022-12-29T01:03:35;3.83;;;1.00;;
17347;SDS011;8791;50.876;4.342;2022-12-29T01:06:03;2.53;;;1.10;;
17347;SDS011;8791;50.876;4.342;2022-12-29T01:08:31;4.73;;;1.13;;
17347;SDS011;8791;50.876;4.342;2022-12-29T01:11:00;1.37;;;1.00;;
17347;SDS011;8791;50.876;4.342;2022-12-29T01:13:27;5.00;;;1.20;;
17347;SDS011;8791;50.876;4.342;2022-12-29T01:15:54;1.73;;;1.07;;
17347;SDS011;8791;50.876;4.342;2022-12-29T01:18:21;3.67;;;0.90;;
17347;SDS011;8791;50.876;4.342;2022-12-29T01:20:49;1.53;;;0.83;;
17347;SDS011;8791;50.876;4.342;2022-12-29T01:23:16;2.33;;;1.03;;
17347;SDS011;8791;50.876;4.342;2022-12-29T01:25:43;5.23;;;0.83;;
17347;SDS011;8791;50.876;4.342;2022-12-29T01:28:11;3.43;;;0.87;;
17347;SDS011;8791;50.876;4.342;2022-12-29T01:30:39;3.50;;;1.00;;
17347;SDS011;8791;50.876;4.342;2022-12-29T01:33:05;3.07;;;1.00;;
17347;SDS011;8791;50.876;4.342;2022-12-29T01:35:32;4.47;;;1.20;;
17347;SDS011;8791;50.876;4.342;2022-12-29T01:37:59;2.47;;;1.40;;
17347;SDS011;8791;50.876;4.342;2022-12-29T01:40:26;0.80;;;0.80;;
17347;SDS011;8791;50.876;4.342;2022-12-29T01:42:53;2.77;;;1.13;;
17347;SDS011;8791;50.876;4.342;2022-12-29T01:45:21;2.50;;;0.97;;
17347;SDS011;8791;50.876;4.342;2022-12-29T01:47:48;3.23;;;1.03;;
17347;SDS011;8791;50.876;4.342;2022-12-29T01:50:18;3.03;;;1.40;;
17347;SDS011;8791;50.876;4.342;2022-12-29T01:52:53;3.13;;;1.10;;
17347;SDS011;8791;50.876;4.342;2022-12-29T01:55:23;3.03;;;1.17;;
17347;SDS011;8791;50.876;4.342;2022-12-29T01:57:51;2.77;;;1.00;;
17347;SDS011;8791;50.876;4.342;2022-12-29T02:00:21;2.17;;;1.03;;
17347;SDS011;8791;50.876;4.342;2022-12-29T02:02:49;3.63;;;1.07;;
17347;SDS011;8791;50.876;4.342;2022-12-29T02:05:20;1.27;;;0.90;;
17347;SDS011;8791;50.876;4.342;2022-12-29T02:07:51;0.93;;;0.80;;
17347;SDS011;8791;50.876;4.342;2022-12-29T02:10:19;3.00;;;1.07;;
17347;SDS011;8791;50.876;4.342;2022-12-29T02:12:47;4.17;;;1.17;;
17347;SDS011;8791;50.876;4.342;2022-12-29T02:15:14;3.73;;;1.00;;
17347;SDS011;8791;50.876;4.342;2022-12-29T02:17:48;2.27;;;0.90;;
17347;SDS011;8791;50.876;4.342;2022-12-29T02:20:39;2.70;;;1.10;;
17347;SDS011;8791;50.876;4.342;2022-12-29T02:23:41;6.27;;;1.50;;
17347;SDS011;8791;50.876;4.342;2022-12-29T02:26:48;2.13;;;1.37;;
17347;SDS011;8791;50.876;4.342;2022-12-29T02:29:32;3.70;;;1.43;;
17347;SDS011;8791;50.876;4.342;2022-12-29T02:32:17;4.17;;;1.40;;
17347;SDS011;8791;50.876;4.342;2022-12-29T02:34:55;1.90;;;1.10;;
17347;SDS011;8791;50.876;4.342;2022-12-29T02:37:30;4.73;;;1.40;;
17347;SDS011;8791;50.876;4.342;2022-12-29T02:40:06;1.93;;;1.00;;
17347;SDS011;8791;50.876;4.342;2022-12-29T02:42:43;1.77;;;1.30;;
17347;SDS011;8791;50.876;4.342;2022-12-29T02:45:17;1.33;;;0.80;;
17347;SDS011;8791;50.876;4.342;2022-12-29T02:47:51;0.80;;;0.80;;
17347;SDS011;8791;50.876;4.342;2022-12-29T02:50:25;2.37;;;0.87;;
17347;SDS011;8791;50.876;4.342;2022-12-29T02:52:59;1.10;;;0.80;;
17347;SDS011;8791;50.876;4.342;2022-12-29T02:55:28;3.00;;;0.80;;
17347;SDS011;8791;50.876;4.342;2022-12-29T02:58:11;1.67;;;0.97;;
17347;SDS011;8791;50.876;4.342;2022-12-29T03:00:44;1.50;;;0.80;;
17347;SDS011;8791;50.876;4.342;2022-12-29T03:03:24;1.57;;;0.90;;
17347;SDS011;8791;50.876;4.342;2022-12-29T03:08:53;4.40;;;1.50;;
17347;SDS011;8791;50.876;4.342;2022-12-29T03:11:26;5.97;;;1.70;;
17347;SDS011;8791;50.876;4.342;2022-12-29T03:14:16;9.00;;;1.70;;
17347;SDS011;8791;50.876;4.342;2022-12-29T03:17:08;6.73;;;1.83;;
17347;SDS011;8791;50.876;4.342;2022-12-29T03:19:44;5.10;;;1.70;;
17347;SDS011;8791;50.876;4.342;2022-12-29T03:22:15;2.73;;;1.30;;
17347;SDS011;8791;50.876;4.342;2022-12-29T03:24:57;3.30;;;1.10;;
17347;SDS011;8791;50.876;4.342;2022-12-29T03:27:27;3.30;;;1.00;;
17347;SDS011;8791;50.876;4.342;2022-12-29T03:29:59;4.50;;;1.53;;
17347;SDS011;8791;50.876;4.342;2022-12-29T03:32:29;3.60;;;1.13;;
17347;SDS011;8791;50.876;4.342;2022-12-29T03:35:00;1.23;;;0.93;;
17347;SDS011;8791;50.876;4.342;2022-12-29T03:37:29;4.90;;;1.03;;
17347;SDS011;8791;50.876;4.342;2022-12-29T03:40:02;2.47;;;1.00;;
17347;SDS011;8791;50.876;4.342;2022-12-29T03:42:30;5.67;;;1.10;;
17347;SDS011;8791;50.876;4.342;2022-12-29T03:45:00;2.23;;;0.80;;
17347;SDS011;8791;50.876;4.342;2022-12-29T03:47:26;1.10;;;1.00;;
17347;SDS011;8791;50.876;4.342;2022-12-29T03:49:53;2.20;;;1.33;;
17347;SDS011;8791;50.876;4.342;2022-12-29T03:52:21;6.63;;;1.37;;
17347;SDS011;8791;50.876;4.342;2022-12-29T03:54:48;3.47;;;1.33;;
17347;SDS011;8791;50.876;4.342;2022-12-29T03:57:15;2.00;;;1.00;;
17347;SDS011;8791;50.876;4.342;2022-12-29T03:59:42;4.67;;;1.03;;
17347;SDS011;8791;50.876;4.342;2022-12-29T04:02:08;3.20;;;0.80;;
17347;SDS011;8791;50.876;4.342;2022-12-29T04:04:35;2.07;;;0.90;;
17347;SDS011;8791;50.876;4.342;2022-12-29T04:07:02;4.23;;;1.00;;
17347;SDS011;8791;50.876;4.342;2022-12-29T04:09:30;5.90;;;1.27;;
17347;SDS011;8791;50.876;4.342;2022-12-29T04:11:57;7.27;;;1.00;;
17347;SDS011;8791;50.876;4.342;2022-12-29T04:14:24;5.23;;;1.10;;
17347;SDS011;8791;50.876;4.342;2022-12-29T04:16:50;4.93;;;1.20;;
17347;SDS011;8791;50.876;4.342;2022-12-29T04:19:17;6.60;;;1.37;;
17347;SDS011;8791;50.876;4.342;2022-12-29T04:21:44;4.07;;;1.30;;
17347;SDS011;8791;50.876;4.342;2022-12-29T04:24:10;3.07;;;1.03;;
17347;SDS011;8791;50.876;4.342;2022-12-29T04:26:39;3.03;;;1.13;;
17347;SDS011;8791;50.876;4.342;2022-12-29T04:29:06;5.83;;;1.30;;
17347;SDS011;8791;50.876;4.342;2022-12-29T04:31:33;4.77;;;1.00;;
17347;SDS011;8791;50.876;4.342;2022-12-29T04:34:00;6.63;;;0.93;;
17347;SDS011;8791;50.876;4.342;2022-12-29T04:36:27;1.67;;;0.83;;
17347;SDS011;8791;50.876;4.342;2022-12-29T04:38:54;2.73;;;1.10;;
17347;SDS011;8791;50.876;4.342;2022-12-29T04:41:20;6.37;;;1.20;;
17347;SDS011;8791;50.876;4.342;2022-12-29T04:43:49;6.40;;;1.47;;
17347;SDS011;8791;50.876;4.342;2022-12-29T04:46:15;4.40;;;1.27;;
17347;SDS011;8791;50.876;4.342;2022-12-29T04:48:42;6.83;;;2.33;;
17347;SDS011;8791;50.876;4.342;2022-12-29T04:51:09;7.50;;;1.57;;
17347;SDS011;8791;50.876;4.342;2022-12-29T04:53:36;5.30;;;1.53;;
17347;SDS011;8791;50.876;4.342;2022-12-29T04:56:03;7.13;;;2.00;;
17347;SDS011;8791;50.876;4.342;2022-12-29T04:58:30;3.80;;;1.60;;
17347;SDS011;8791;50.876;4.342;2022-12-29T05:00:58;6.70;;;2.00;;
17347;SDS011;8791;50.876;4.342;2022-12-29T05:03:25;7.90;;;2.10;;
17347;SDS011;8791;50.876;4.342;2022-12-29T05:05:53;2.13;;;1.70;;
17347;SDS011;8791;50.876;4.342;2022-12-29T05:08:20;6.20;;;1.73;;
17347;SDS011;8791;50.876;4.342;2022-12-29T05:10:47;4.23;;;1.40;;
17347;SDS011;8791;50.876;4.342;2022-12-29T05:13:16;8.10;;;1.60;;
17347;SDS011;8791;50.876;4.342;2022-12-29T05:15:45;6.73;;;1.60;;
17347;SDS011;8791;50.876;4.342;2022-12-29T05:18:15;3.20;;;1.50;;
17347;SDS011;8791;50.876;4.342;2022-12-29T05:20:42;4.63;;;1.30;;
17347;SDS011;8791;50.876;4.342;2022-12-29T05:23:09;8.20;;;1.40;;
17347;SDS011;8791;50.876;4.342;2022-12-29T05:25:35;10.30;;;1.60;;
17347;SDS011;8791;50.876;4.342;2022-12-29T05:28:02;3.77;;;1.23;;
17347;SDS011;8791;50.876;4.342;2022-12-29T05:30:29;6.80;;;1.60;;
17347;SDS011;8791;50.876;4.342;2022-12-29T05:32:56;7.50;;;1.40;;
17347;SDS011;8791;50.876;4.342;2022-12-29T05:35:24;3.87;;;1.23;;
17347;SDS011;8791;50.876;4.342;2022-12-29T05:37:51;9.70;;;1.67;;
17347;SDS011;8791;50.876;4.342;2022-12-29T05:40:18;11.47;;;1.77;;
17347;SDS011;8791;50.876;4.342;2022-12-29T05:42:44;9.60;;;1.80;;
17347;SDS011;8791;50.876;4.342;2022-12-29T05:45:11;7.27;;;1.20;;
17347;SDS011;8791;50.876;4.342;2022-12-29T05:47:38;5.87;;;1.70;;
17347;SDS011;8791;50.876;4.342;2022-12-29T05:50:05;10.77;;;1.30;;
17347;SDS011;8791;50.876;4.342;2022-12-29T05:52:33;5.30;;;1.40;;
17347;SDS011;8791;50.876;4.342;2022-12-29T05:55:00;13.77;;;1.60;;
17347;SDS011;8791;50.876;4.342;2022-12-29T05:57:27;6.40;;;1.50;;
17347;SDS011;8791;50.876;4.342;2022-12-29T05:59:54;8.43;;;1.40;;
17347;SDS011;8791;50.876;4.342;2022-12-29T06:02:20;7.23;;;1.60;;
17347;SDS011;8791;50.876;4.342;2022-12-29T06:04:47;9.77;;;1.73;;
17347;SDS011;8791;50.876;4.342;2022-12-29T06:07:14;5.67;;;1.30;;
17347;SDS011;8791;50.876;4.342;2022-12-29T06:09:42;7.03;;;1.30;;
17347;SDS011;8791;50.876;4.342;2022-12-29T06:12:09;8.70;;;1.23;;
17347;SDS011;8791;50.876;4.342;2022-12-29T06:14:36;9.77;;;2.30;;
17347;SDS011;8791;50.876;4.342;2022-12-29T06:19:32;9.80;;;1.50;;
17347;SDS011;8791;50.876;4.342;2022-12-29T06:21:59;9.83;;;1.50;;
17347;SDS011;8791;50.876;4.342;2022-12-29T06:24:25;7.37;;;1.50;;
17347;SDS011;8791;50.876;4.342;2022-12-29T06:26:54;12.83;;;2.00;;
17347;SDS011;8791;50.876;4.342;2022-12-29T06:29:20;6.83;;;1.70;;
17347;SDS011;8791;50.876;4.342;2022-12-29T06:31:47;15.07;;;1.93;;
17347;SDS011;8791;50.876;4.342;2022-12-29T06:34:16;11.17;;;1.93;;
17347;SDS011;8791;50.876;4.342;2022-12-29T06:36:43;8.27;;;2.00;;
17347;SDS011;8791;50.876;4.342;2022-12-29T06:39:09;8.83;;;1.87;;
17347;SDS011;8791;50.876;4.342;2022-12-29T06:41:36;8.43;;;2.13;;
17347;SDS011;8791;50.876;4.342;2022-12-29T06:44:05;7.30;;;1.43;;
17347;SDS011;8791;50.876;4.342;2022-12-29T06:46:31;9.80;;;2.00;;
17347;SDS011;8791;50.876;4.342;2022-12-29T06:48:58;7.20;;;1.70;;
17347;SDS011;8791;50.876;4.342;2022-12-29T06:51:25;5.47;;;2.30;;
17347;SDS011;8791;50.876;4.342;2022-12-29T06:53:52;13.10;;;2.33;;
17347;SDS011;8791;50.876;4.342;2022-12-29T06:56:18;6.93;;;1.87;;
17347;SDS011;8791;50.876;4.342;2022-12-29T06:58:45;6.10;;;1.50;;
17347;SDS011;8791;50.876;4.342;2022-12-29T07:01:13;11.00;;;1.90;;
17347;SDS011;8791;50.876;4.342;2022-12-29T07:03:40;4.70;;;1.60;;
17347;SDS011;8791;50.876;4.342;2022-12-29T07:06:07;7.63;;;1.40;;
17347;SDS011;8791;50.876;4.342;2022-12-29T07:08:34;7.97;;;2.00;;
17347;SDS011;8791;50.876;4.342;2022-12-29T07:11:01;7.80;;;1.67;;
17347;SDS011;8791;50.876;4.342;2022-12-29T07:13:28;7.77;;;1.40;;
17347;SDS011;8791;50.876;4.342;2022-12-29T07:15:55;6.87;;;1.63;;
17347;SDS011;8791;50.876;4.342;2022-12-29T07:18:23;5.93;;;1.60;;
17347;SDS011;8791;50.876;4.342;2022-12-29T07:20:50;9.17;;;1.90;;
17347;SDS011;8791;50.876;4.342;2022-12-29T07:23:16;7.17;;;1.43;;
17347;SDS011;8791;50.876;4.342;2022-12-29T07:25:43;7.47;;;2.07;;
17347;SDS011;8791;50.876;4.342;2022-12-29T07:28:10;7.97;;;1.43;;
17347;SDS011;8791;50.876;4.342;2022-12-29T07:30:37;14.83;;;2.27;;
17347;SDS011;8791;50.876;4.342;2022-12-29T07:33:04;7.37;;;1.77;;
17347;SDS011;8791;50.876;4.342;2022-12-29T07:35:32;12.37;;;2.07;;
17347;SDS011;8791;50.876;4.342;2022-12-29T07:38:00;11.67;;;2.43;;
17347;SDS011;8791;50.876;4.342;2022-12-29T07:40:26;12.27;;;2.20;;
17347;SDS011;8791;50.876;4.342;2022-12-29T07:42:53;7.77;;;1.50;;
17347;SDS011;8791;50.876;4.342;2022-12-29T07:45:20;8.30;;;2.10;;
17347;SDS011;8791;50.876;4.342;2022-12-29T07:47:47;9.50;;;1.70;;
17347;SDS011;8791;50.876;4.342;2022-12-29T07:50:15;8.00;;;1.67;;
17347;SDS011;8791;50.876;4.342;2022-12-29T07:52:43;7.33;;;1.57;;
17347;SDS011;8791;50.876;4.342;2022-12-29T07:55:12;8.10;;;2.40;;
17347;SDS011;8791;50.876;4.342;2022-12-29T07:57:38;11.20;;;2.43;;
17347;SDS011;8791;50.876;4.342;2022-12-29T08:00:06;11.40;;;2.00;;
17347;SDS011;8791;50.876;4.342;2022-12-29T08:02:34;11.23;;;2.03;;
17347;SDS011;8791;50.876;4.342;2022-12-29T08:05:01;12.37;;;2.27;;
17347;SDS011;8791;50.876;4.342;2022-12-29T08:07:28;14.07;;;2.00;;
17347;SDS011;8791;50.876;4.342;2022-12-29T08:09:56;7.23;;;2.00;;
17347;SDS011;8791;50.876;4.342;2022-12-29T08:12:23;9.83;;;2.67;;
17347;SDS011;8791;50.876;4.342;2022-12-29T08:14:50;8.90;;;1.90;;
17347;SDS011;8791;50.876;4.342;2022-12-29T08:17:17;14.63;;;2.20;;
17347;SDS011;8791;50.876;4.342;2022-12-29T08:19:44;9.40;;;2.00;;
17347;SDS011;8791;50.876;4.342;2022-12-29T08:22:11;10.07;;;2.13;;
17347;SDS011;8791;50.876;4.342;2022-12-29T08:24:39;8.50;;;1.80;;
17347;SDS011;8791;50.876;4.342;2022-12-29T08:27:07;7.27;;;1.60;;
17347;SDS011;8791;50.876;4.342;2022-12-29T08:29:34;9.27;;;1.70;;
17347;SDS011;8791;50.876;4.342;2022-12-29T08:32:00;10.00;;;1.80;;
17347;SDS011;8791;50.876;4.342;2022-12-29T08:34:27;14.13;;;1.77;;
17347;SDS011;8791;50.876;4.342;2022-12-29T08:36:56;12.33;;;2.23;;
17347;SDS011;8791;50.876;4.342;2022-12-29T08:39:22;5.87;;;1.70;;
17347;SDS011;8791;50.876;4.342;2022-12-29T08:41:49;6.37;;;1.50;;
17347;SDS011;8791;50.876;4.342;2022-12-29T08:44:18;8.00;;;1.50;;
17347;SDS011;8791;50.876;4.342;2022-12-29T08:46:45;7.03;;;1.87;;
17347;SDS011;8791;50.876;4.342;2022-12-29T08:49:11;14.70;;;1.63;;
17347;SDS011;8791;50.876;4.342;2022-12-29T08:51:38;8.23;;;2.23;;
17347;SDS011;8791;50.876;4.342;2022-12-29T08:54:05;11.53;;;1.73;;
17347;SDS011;8791;50.876;4.342;2022-12-29T08:56:32;10.40;;;1.70;;
17347;SDS011;8791;50.876;4.342;2022-12-29T08:58:59;9.03;;;1.70;;
17347;SDS011;8791;50.876;4.342;2022-12-29T09:01:27;10.10;;;1.90;;
17347;SDS011;8791;50.876;4.342;2022-12-29T09:03:55;15.73;;;1.70;;
17347;SDS011;8791;50.876;4.342;2022-12-29T09:06:22;12.90;;;2.10;;
17347;SDS011;8791;50.876;4.342;2022-12-29T09:08:49;13.20;;;2.30;;
17347;SDS011;8791;50.876;4.342;2022-12-29T09:11:16;10.60;;;2.00;;
17347;SDS011;8791;50.876;4.342;2022-12-29T09:13:44;9.13;;;2.17;;
17347;SDS011;8791;50.876;4.342;2022-12-29T09:16:12;8.00;;;2.20;;
17347;SDS011;8791;50.876;4.342;2022-12-29T09:18:41;17.90;;;2.03;;
17347;SDS011;8791;50.876;4.342;2022-12-29T09:21:09;11.63;;;2.37;;
17347;SDS011;8791;50.876;4.342;2022-12-29T09:23:37;8.60;;;1.83;;
17347;SDS011;8791;50.876;4.342;2022-12-29T09:26:04;13.50;;;2.00;;
17347;SDS011;8791;50.876;4.342;2022-12-29T09:28:31;13.07;;;2.07;;
17347;SDS011;8791;50.876;4.342;2022-12-29T09:30:58;14.17;;;2.77;;
17347;SDS011;8791;50.876;4.342;2022-12-29T09:33:25;8.17;;;1.93;;
17347;SDS011;8791;50.876;4.342;2022-12-29T09:35:55;11.87;;;2.30;;
17347;SDS011;8791;50.876;4.342;2022-12-29T09:38:23;10.23;;;2.20;;
17347;SDS011;8791;50.876;4.342;2022-12-29T09:40:52;17.97;;;2.67;;
17347;SDS011;8791;50.876;4.342;2022-12-29T09:43:40;12.30;;;2.37;;
17347;SDS011;8791;50.876;4.342;2022-12-29T09:46:19;17.43;;;2.40;;
17347;SDS011;8791;50.876;4.342;2022-12-29T09:48:51;17.90;;;2.77;;
17347;SDS011;8791;50.876;4.342;2022-12-29T09:51:25;15.90;;;3.73;;
17347;SDS011;8791;50.876;4.342;2022-12-29T09:53:53;21.60;;;3.30;;
17347;SDS011;8791;50.876;4.342;2022-12-29T09:56:24;21.40;;;4.67;;
17347;SDS011;8791;50.876;4.342;2022-12-29T09:58:54;19.13;;;5.37;;
17347;SDS011;8791;50.876;4.342;2022-12-29T10:01:27;22.37;;;4.87;;
17347;SDS011;8791;50.876;4.342;2022-12-29T10:03:58;13.90;;;2.47;;
17347;SDS011;8791;50.876;4.342;2022-12-29T10:06:31;18.40;;;4.10;;
17347;SDS011;8791;50.876;4.342;2022-12-29T10:09:02;17.83;;;3.30;;
17347;SDS011;8791;50.876;4.342;2022-12-29T10:11:43;17.13;;;2.93;;
17347;SDS011;8791;50.876;4.342;2022-12-29T10:14:29;12.60;;;3.53;;
17347;SDS011;8791;50.876;4.342;2022-12-29T10:17:10;24.27;;;9.40;;
17347;SDS011;8791;50.876;4.342;2022-12-29T10:19:51;16.07;;;2.93;;
17347;SDS011;8791;50.876;4.342;2022-12-29T10:22:29;18.63;;;3.20;;
17347;SDS011;8791;50.876;4.342;2022-12-29T10:25:08;10.93;;;2.60;;
17347;SDS011;8791;50.876;4.342;2022-12-29T10:27:41;8.63;;;2.33;;
17347;SDS011;8791;50.876;4.342;2022-12-29T10:30:10;11.00;;;2.07;;
17347;SDS011;8791;50.876;4.342;2022-12-29T10:32:39;12.33;;;2.07;;
17347;SDS011;8791;50.876;4.342;2022-12-29T10:35:10;9.60;;;1.80;;
17347;SDS011;8791;50.876;4.342;2022-12-29T10:37:45;15.47;;;2.23;;
17347;SDS011;8791;50.876;4.342;2022-12-29T10:40:18;14.27;;;2.00;;
17347;SDS011;8791;50.876;4.342;2022-12-29T10:42:52;10.20;;;2.40;;
17347;SDS011;8791;50.876;4.342;2022-12-29T10:45:21;13.83;;;3.07;;
17347;SDS011;8791;50.876;4.342;2022-12-29T10:47:52;22.07;;;2.40;;
17347;SDS011;8791;50.876;4.342;2022-12-29T10:50:22;14.40;;;2.10;;
17347;SDS011;8791;50.876;4.342;2022-12-29T10:52:52;12.47;;;2.23;;
17347;SDS011;8791;50.876;4.342;2022-12-29T10:55:21;10.87;;;2.17;;
17347;SDS011;8791;50.876;4.342;2022-12-29T10:57:53;14.30;;;2.27;;
17347;SDS011;8791;50.876;4.342;2022-12-29T11:00:22;15.23;;;2.50;;
17347;SDS011;8791;50.876;4.342;2022-12-29T11:02:53;12.27;;;2.20;;
17347;SDS011;8791;50.876;4.342;2022-12-29T11:05:40;18.63;;;2.80;;
17347;SDS011;8791;50.876;4.342;2022-12-29T11:08:14;15.33;;;2.10;;
17347;SDS011;8791;50.876;4.342;2022-12-29T11:10:44;10.10;;;1.83;;
17347;SDS011;8791;50.876;4.342;2022-12-29T11:13:14;15.53;;;2.87;;
17347;SDS011;8791;50.876;4.342;2022-12-29T11:15:43;8.70;;;2.20;;
17347;SDS011;8791;50.876;4.342;2022-12-29T11:18:18;8.90;;;2.73;;
17347;SDS011;8791;50.876;4.342;2022-12-29T11:20:47;8.70;;;1.67;;
17347;SDS011;8791;50.876;4.342;2022-12-29T11:23:23;12.80;;;2.00;;
17347;SDS011;8791;50.876;4.342;2022-12-29T11:28:42;16.47;;;2.17;;
17347;SDS011;8791;50.876;4.342;2022-12-29T11:31:12;8.63;;;1.70;;
17347;SDS011;8791;50.876;4.342;2022-12-29T11:33:42;11.27;;;2.03;;
17347;SDS011;8791;50.876;4.342;2022-12-29T11:36:10;10.13;;;1.67;;
17347;SDS011;8791;50.876;4.342;2022-12-29T11:38:45;6.73;;;2.20;;
17347;SDS011;8791;50.876;4.342;2022-12-29T11:41:18;8.87;;;1.87;;
17347;SDS011;8791;50.876;4.342;2022-12-29T11:43:48;7.93;;;2.23;;
17347;SDS011;8791;50.876;4.342;2022-12-29T11:46:16;12.20;;;2.50;;
17347;SDS011;8791;50.876;4.342;2022-12-29T11:48:46;10.33;;;2.20;;
17347;SDS011;8791;50.876;4.342;2022-12-29T11:51:20;17.43;;;3.20;;
17347;SDS011;8791;50.876;4.342;2022-12-29T11:53:51;13.17;;;2.73;;
17347;SDS011;8791;50.876;4.342;2022-12-29T11:56:21;15.10;;;2.53;;
17347;SDS011;8791;50.876;4.342;2022-12-29T11:58:59;13.70;;;2.53;;
17347;SDS011;8791;50.876;4.342;2022-12-29T12:02:24;14.33;;;2.30;;
17347;SDS011;8791;50.876;4.342;2022-12-29T12:04:59;13.33;;;1.90;;
17347;SDS011;8791;50.876;4.342;2022-12-29T12:07:34;15.67;;;2.30;;
17347;SDS011;8791;50.876;4.342;2022-12-29T12:10:10;9.37;;;2.13;;
17347;SDS011;8791;50.876;4.342;2022-12-29T12:12:47;13.70;;;2.27;;
17347;SDS011;8791;50.876;4.342;2022-12-29T12:15:18;10.17;;;1.93;;
17347;SDS011;8791;50.876;4.342;2022-12-29T12:17:49;14.00;;;2.47;;
17347;SDS011;8791;50.876;4.342;2022-12-29T12:20:19;12.03;;;2.47;;
17347;SDS011;8791;50.876;4.342;2022-12-29T12:22:51;9.90;;;2.80;;
17347;SDS011;8791;50.876;4.342;2022-12-29T12:25:30;9.63;;;2.17;;
17347;SDS011;8791;50.876;4.342;2022-12-29T12:28:05;14.10;;;2.20;;
17347;SDS011;8791;50.876;4.342;2022-12-29T12:30:39;10.50;;;2.40;;
17347;SDS011;8791;50.876;4.342;2022-12-29T12:33:14;11.23;;;2.20;;
17347;SDS011;8791;50.876;4.342;2022-12-29T12:35:50;17.53;;;2.83;;
17347;SDS011;8791;50.876;4.342;2022-12-29T12:38:28;6.73;;;2.13;;
17347;SDS011;8791;50.876;4.342;2022-12-29T12:41:06;13.97;;;2.13;;
17347;SDS011;8791;50.876;4.342;2022-12-29T12:43:40;7.10;;;1.93;;
17347;SDS011;8791;50.876;4.342;2022-12-29T12:46:13;14.20;;;1.97;;
17347;SDS011;8791;50.876;4.342;2022-12-29T12:48:55;15.53;;;2.30;;
17347;SDS011;8791;50.876;4.342;2022-12-29T12:51:42;7.90;;;2.10;;
17347;SDS011;8791;50.876;4.342;2022-12-29T12:54:22;13.03;;;3.03;;
17347;SDS011;8791;50.876;4.342;2022-12-29T12:57:03;9.40;;;2.47;;
17347;SDS011;8791;50.876;4.342;2022-12-29T12:59:42;12.23;;;2.70;;
17347;SDS011;8791;50.876;4.342;2022-12-29T13:02:21;14.07;;;3.00;;
17347;SDS011;8791;50.876;4.342;2022-12-29T13:05:09;8.83;;;2.30;;
17347;SDS011;8791;50.876;4.342;2022-12-29T13:07:54;12.90;;;2.67;;
17347;SDS011;8791;50.876;4.342;2022-12-29T13:10:32;7.07;;;2.03;;
17347;SDS011;8791;50.876;4.342;2022-12-29T13:13:25;16.87;;;2.17;;
17347;SDS011;8791;50.876;4.342;2022-12-29T13:16:05;14.60;;;3.33;;
17347;SDS011;8791;50.876;4.342;2022-12-29T13:18:42;8.47;;;1.90;;
17347;SDS011;8791;50.876;4.342;2022-12-29T13:21:18;9.37;;;1.87;;
17347;SDS011;8791;50.876;4.342;2022-12-29T13:23:56;8.57;;;1.93;;
17347;SDS011;8791;50.876;4.342;2022-12-29T13:26:29;7.07;;;1.77;;
17347;SDS011;8791;50.876;4.342;2022-12-29T13:29:06;12.80;;;1.93;;
17347;SDS011;8791;50.876;4.342;2022-12-29T13:31:42;16.03;;;2.20;;
17347;SDS011;8791;50.876;4.342;2022-12-29T13:34:18;14.30;;;2.57;;
17347;SDS011;8791;50.876;4.342;2022-12-29T13:36:53;9.63;;;2.43;;
17347;SDS011;8791;50.876;4.342;2022-12-29T13:39:26;13.20;;;1.97;;
17347;SDS011;8791;50.876;4.342;2022-12-29T13:41:58;9.47;;;1.73;;
17347;SDS011;8791;50.876;4.342;2022-12-29T13:44:29;6.87;;;1.87;;
17347;SDS011;8791;50.876;4.342;2022-12-29T13:47:00;8.47;;;1.80;;
17347;SDS011;8791;50.876;4.342;2022-12-29T13:49:34;9.90;;;3.03;;
17347;SDS011;8791;50.876;4.342;2022-12-29T13:52:05;10.63;;;2.23;;
17347;SDS011;8791;50.876;4.342;2022-12-29T13:54:40;10.07;;;2.10;;
17347;SDS011;8791;50.876;4.342;2022-12-29T13:57:13;13.20;;;2.47;;
17347;SDS011;8791;50.876;4.342;2022-12-29T13:59:50;15.53;;;3.17;;
17347;SDS011;8791;50.876;4.342;2022-12-29T14:02:24;11.23;;;2.77;;
17347;SDS011;8791;50.876;4.342;2022-12-29T14:04:59;10.53;;;2.77;;
17347;SDS011;8791;50.876;4.342;2022-12-29T14:07:27;11.97;;;2.33;;
17347;SDS011;8791;50.876;4.342;2022-12-29T14:09:55;14.73;;;2.70;;
17347;SDS011;8791;50.876;4.342;2022-12-29T14:12:30;14.10;;;2.63;;
17347;SDS011;8791;50.876;4.342;2022-12-29T14:15:04;11.23;;;3.20;;
17347;SDS011;8791;50.876;4.342;2022-12-29T14:17:39;16.63;;;3.07;;
17347;SDS011;8791;50.876;4.342;2022-12-29T14:20:16;11.80;;;2.63;;
17347;SDS011;8791;50.876;4.342;2022-12-29T14:22:55;12.63;;;3.10;;
17347;SDS011;8791;50.876;4.342;2022-12-29T14:28:22;18.83;;;2.80;;
17347;SDS011;8791;50.876;4.342;2022-12-29T14:30:53;15.63;;;3.20;;
17347;SDS011;8791;50.876;4.342;2022-12-29T14:33:21;11.03;;;3.00;;
17347;SDS011;8791;50.876;4.342;2022-12-29T14:35:51;7.10;;;3.10;;
17347;SDS011;8791;50.876;4.342;2022-12-29T14:38:19;6.80;;;4.70;;
17347;SDS011;8791;50.876;4.342;2022-12-29T14:40:49;10.77;;;6.20;;
17347;SDS011;8791;50.876;4.342;2022-12-29T14:43:28;8.53;;;6.40;;
17347;SDS011;8791;50.876;4.342;2022-12-29T14:45:57;9.50;;;8.60;;
17347;SDS011;8791;50.876;4.342;2022-12-29T14:48:34;11.67;;;9.97;;
17347;SDS011;8791;50.876;4.342;2022-12-29T14:51:18;11.33;;;10.23;;
17347;SDS011;8791;50.876;4.342;2022-12-29T14:53:47;13.37;;;12.07;;
17347;SDS011;8791;50.876;4.342;2022-12-29T14:56:15;13.10;;;11.93;;
17347;SDS011;8791;50.876;4.342;2022-12-29T14:58:45;14.10;;;13.03;;
17347;SDS011;8791;50.876;4.342;2022-12-29T15:01:24;11.23;;;10.00;;
17347;SDS011;8791;50.876;4.342;2022-12-29T15:03:56;13.13;;;10.53;;
17347;SDS011;8791;50.876;4.342;2022-12-29T15:06:27;12.57;;;10.20;;
17347;SDS011;8791;50.876;4.342;2022-12-29T15:08:59;12.60;;;11.33;;
17347;SDS011;8791;50.876;4.342;2022-12-29T15:11:41;12.93;;;11.83;;
17347;SDS011;8791;50.876;4.342;2022-12-29T15:14:27;12.23;;;11.13;;
17347;SDS011;8791;50.876;4.342;2022-12-29T15:16:57;15.53;;;11.43;;
17347;SDS011;8791;50.876;4.342;2022-12-29T15:19:25;13.30;;;12.20;;
17347;SDS011;8791;50.876;4.342;2022-12-29T15:21:53;19.37;;;11.50;;
17347;SDS011;8791;50.876;4.342;2022-12-29T15:24:23;11.47;;;10.80;;
17347;SDS011;8791;50.876;4.342;2022-12-29T15:26:51;11.90;;;10.70;;
17347;SDS011;8791;50.876;4.342;2022-12-29T15:32:18;14.83;;;10.73;;
17347;SDS011;8791;50.876;4.342;2022-12-29T15:34:48;14.77;;;10.93;;